createdAt,value
2018-04-19T00:01:02.321Z,5.50
2018-04-19T00:03:29.864Z,7.20
2018-04-19T00:05:57.609Z,6.33
2018-04-19T00:08:25.657Z,7.03
2018-04-19T00:10:53.188Z,5.73
2018-04-19T00:13:21.631Z,6.37
2018-04-19T00:15:49.860Z,6.27
2018-04-19T00:18:18.169Z,5.80
2018-04-19T00:20:46.347Z,6.33
2018-04-19T00:23:14.411Z,6.03
2018-04-19T00:25:42.636Z,5.53
2018-04-19T00:28:10.293Z,6.60
2018-04-19T00:30:37.888Z,6.30
2018-04-19T00:33:05.491Z,7.53
2018-04-19T00:35:33.024Z,6.43
2018-04-19T00:38:00.563Z,7.07
2018-04-19T00:40:28.121Z,6.60
2018-04-19T00:42:55.687Z,7.63
2018-04-19T00:45:23.670Z,6.70
2018-04-19T00:47:51.811Z,6.60
2018-04-19T00:50:19.360Z,7.20
2018-04-19T00:52:59.810Z,6.50
2018-04-19T00:55:27.352Z,5.80
2018-04-19T00:57:54.927Z,7.00
2018-04-19T01:00:22.539Z,8.20
2018-04-19T01:02:50.183Z,6.77
2018-04-19T01:05:17.708Z,9.90
2018-04-19T01:07:45.979Z,6.77
2018-04-19T01:10:13.520Z,7.60
2018-04-19T01:12:41.803Z,6.70
2018-04-19T01:15:09.482Z,7.43
2018-04-19T01:17:37.797Z,7.27
2018-04-19T01:20:05.787Z,7.07
2018-04-19T01:22:34.042Z,6.37
2018-04-19T01:25:02.259Z,6.83
2018-04-19T01:27:29.794Z,6.70
2018-04-19T01:29:57.343Z,6.73
2018-04-19T01:32:24.917Z,7.77
2018-04-19T01:34:52.551Z,7.13
2018-04-19T01:37:20.303Z,9.70
2018-04-19T01:39:47.886Z,6.80
2018-04-19T01:42:15.432Z,7.57
2018-04-19T01:44:43.779Z,7.83
2018-04-19T01:47:12.295Z,8.37
2018-04-19T01:49:40.534Z,7.13
2018-04-19T01:52:08.720Z,7.43
2018-04-19T01:54:36.266Z,7.43
2018-04-19T01:57:03.969Z,7.47
2018-04-19T01:59:31.536Z,7.77
2018-04-19T02:01:59.595Z,8.40
2018-04-19T02:04:27.131Z,7.47
2018-04-19T02:06:55.484Z,9.80
2018-04-19T02:09:23.030Z,8.10
2018-04-19T02:11:51.423Z,9.20
2018-04-19T02:14:19.686Z,8.77
2018-04-19T02:16:47.217Z,8.07
2018-04-19T02:19:15.689Z,8.33
2018-04-19T02:21:44.281Z,7.97
2018-04-19T02:24:11.990Z,8.40
2018-04-19T02:26:40.553Z,8.37
2018-04-19T02:29:08.085Z,8.17
2018-04-19T02:31:35.622Z,8.23
2018-04-19T02:34:03.194Z,10.07
2018-04-19T02:36:30.775Z,9.37
2018-04-19T02:38:58.315Z,8.67
2018-04-19T02:41:26.519Z,9.10
2018-04-19T02:43:55.129Z,8.60
2018-04-19T02:46:22.975Z,9.67
2018-04-19T02:48:51.002Z,9.37
2018-04-19T02:51:18.630Z,8.33
2018-04-19T02:53:47.007Z,8.77
2018-04-19T02:56:14.569Z,8.07
2018-04-19T02:58:43.000Z,8.47
2018-04-19T03:01:10.627Z,8.67
2018-04-19T03:03:38.192Z,9.43
2018-04-19T03:06:05.802Z,8.77
2018-04-19T03:08:34.099Z,10.37
2018-04-19T03:11:01.631Z,8.63
2018-04-19T03:13:29.822Z,10.00
2018-04-19T03:15:57.349Z,8.93
2018-04-19T03:18:25.473Z,10.70
2018-04-19T03:20:53.680Z,9.57
2018-04-19T03:23:21.367Z,10.37
2018-04-19T03:25:49.443Z,10.60
2018-04-19T03:28:17.033Z,9.20
2018-04-19T03:30:44.563Z,9.60
2018-04-19T03:33:12.209Z,9.77
2018-04-19T03:35:39.815Z,10.77
2018-04-19T03:38:07.362Z,9.70
2018-04-19T03:40:35.782Z,10.70
2018-04-19T03:43:03.322Z,10.67
2018-04-19T03:45:31.402Z,12.23
2018-04-19T03:47:59.965Z,10.27
2018-04-19T03:50:27.622Z,12.47
2018-04-19T03:52:55.647Z,10.77
2018-04-19T03:55:23.710Z,11.23
2018-04-19T03:57:51.363Z,10.80
2018-04-19T04:00:18.903Z,10.13
2018-04-19T04:02:46.470Z,11.10
2018-04-19T04:05:14.088Z,10.33
2018-04-19T04:07:42.271Z,10.43
2018-04-19T04:10:09.793Z,11.07
2018-04-19T04:12:38.447Z,10.93
2018-04-19T04:15:06.038Z,11.13
2018-04-19T04:17:47.867Z,10.33
2018-04-19T04:20:27.671Z,10.63
2018-04-19T04:23:07.160Z,10.77
2018-04-19T04:25:36.567Z,10.40
2018-04-19T04:28:04.141Z,10.80
2018-04-19T04:30:31.690Z,10.87
2018-04-19T04:32:59.252Z,10.40
2018-04-19T04:35:26.801Z,11.20
2018-04-19T04:37:55.676Z,10.33
2018-04-19T04:40:23.257Z,11.40
2018-04-19T04:42:50.810Z,10.27
2018-04-19T04:45:18.857Z,10.53
2018-04-19T04:47:47.401Z,10.83
2018-04-19T04:50:14.967Z,9.70
2018-04-19T04:52:43.359Z,9.80
2018-04-19T04:55:11.015Z,9.80
2018-04-19T04:57:38.554Z,10.63
2018-04-19T05:00:06.365Z,10.97
2018-04-19T05:02:33.981Z,11.10
2018-04-19T05:05:01.516Z,10.17
2018-04-19T05:07:29.107Z,11.10
2018-04-19T05:09:56.648Z,10.33
2018-04-19T05:12:24.194Z,11.70
2018-04-19T05:14:52.501Z,10.37
2018-04-19T05:17:21.488Z,11.53
2018-04-19T05:19:49.584Z,10.03
2018-04-19T05:22:17.122Z,10.57
2018-04-19T05:24:44.677Z,11.57
2018-04-19T05:27:12.928Z,10.70
2018-04-19T05:29:40.498Z,10.60
2018-04-19T05:32:08.042Z,10.80
2018-04-19T05:34:36.219Z,11.30
2018-04-19T05:37:03.763Z,11.60
2018-04-19T05:39:31.834Z,12.27
2018-04-19T05:41:59.376Z,11.03
2018-04-19T05:44:27.791Z,12.60
2018-04-19T05:46:56.365Z,11.90
2018-04-19T05:49:24.640Z,13.23
2018-04-19T05:51:53.023Z,11.83
2018-04-19T05:54:20.607Z,12.13
2018-04-19T05:56:48.200Z,11.13
2018-04-19T05:59:15.778Z,11.60
2018-04-19T06:01:43.349Z,11.67
2018-04-19T06:04:11.255Z,10.83
2018-04-19T06:06:39.715Z,12.07
2018-04-19T06:09:07.260Z,11.53
2018-04-19T06:11:34.825Z,12.03
2018-04-19T06:14:02.841Z,11.77
2018-04-19T06:16:30.402Z,11.83
2018-04-19T06:18:58.834Z,12.40
2018-04-19T06:21:27.314Z,12.40
2018-04-19T06:23:56.098Z,12.20
2018-04-19T06:26:24.055Z,11.73
2018-04-19T06:28:51.612Z,12.47
2018-04-19T06:31:19.679Z,11.00
2018-04-19T06:33:47.579Z,11.70
2018-04-19T06:36:15.132Z,11.67
2018-04-19T06:38:42.813Z,11.40
2018-04-19T06:41:10.484Z,12.00
2018-04-19T06:43:39.555Z,10.70
2018-04-19T06:46:07.095Z,10.13
2018-04-19T06:48:35.531Z,10.33
2018-04-19T06:51:03.124Z,10.77
2018-04-19T06:53:31.262Z,9.43
2018-04-19T06:55:58.808Z,10.57
2018-04-19T06:58:26.347Z,10.53
2018-04-19T07:00:53.935Z,10.73
2018-04-19T07:03:21.543Z,10.60
2018-04-19T07:05:49.111Z,12.70
2018-04-19T07:08:16.711Z,10.27
2018-04-19T07:10:44.271Z,11.13
2018-04-19T07:13:12.874Z,9.10
2018-04-19T07:15:40.515Z,10.47
2018-04-19T07:18:08.963Z,9.80
2018-04-19T07:20:36.935Z,10.17
2018-04-19T07:23:05.312Z,8.80
2018-04-19T07:25:33.415Z,9.07
2018-04-19T07:28:00.997Z,9.43
2018-04-19T07:30:28.992Z,9.63
2018-04-19T07:32:56.534Z,10.80
2018-04-19T07:35:24.071Z,9.10
2018-04-19T07:37:51.751Z,12.13
2018-04-19T07:40:19.287Z,9.87
2018-04-19T07:42:46.832Z,9.73
2018-04-19T07:45:15.019Z,10.20
2018-04-19T07:47:43.366Z,10.43
2018-04-19T07:50:11.044Z,9.17
2018-04-19T07:52:40.287Z,8.87
2018-04-19T07:55:07.847Z,10.63
2018-04-19T07:57:35.434Z,9.83
2018-04-19T08:00:03.038Z,9.57
2018-04-19T08:02:30.582Z,9.47
2018-04-19T08:04:58.246Z,10.13
2018-04-19T08:07:25.949Z,9.40
2018-04-19T08:09:53.480Z,9.63
2018-04-19T08:12:21.946Z,9.00
2018-04-19T08:14:50.543Z,9.63
2018-04-19T08:17:18.688Z,9.47
2018-04-19T08:19:46.803Z,8.70
2018-04-19T08:22:14.370Z,9.07
2018-04-19T08:24:42.995Z,8.20
2018-04-19T08:27:11.373Z,9.40
2018-04-19T08:29:38.969Z,7.73
2018-04-19T08:32:06.518Z,9.07
2018-04-19T08:34:34.094Z,8.83
2018-04-19T08:37:01.681Z,9.47
2018-04-19T08:39:29.263Z,8.50
2018-04-19T08:41:56.830Z,8.87
2018-04-19T08:44:24.810Z,7.83
2018-04-19T08:46:52.503Z,7.97
2018-04-19T08:49:20.572Z,7.83
2018-04-19T08:51:48.720Z,7.40
2018-04-19T08:54:16.262Z,7.10
2018-04-19T08:56:43.830Z,7.20
2018-04-19T08:59:11.515Z,7.60
2018-04-19T09:01:39.071Z,8.07
2018-04-19T09:04:06.750Z,7.73
2018-04-19T09:06:34.371Z,7.47
2018-04-19T09:09:01.930Z,8.73
2018-04-19T09:11:29.991Z,7.23
2018-04-19T09:13:58.147Z,7.73
2018-04-19T09:16:25.679Z,7.53
2018-04-19T09:18:53.876Z,7.33
2018-04-19T09:21:22.180Z,7.50
2018-04-19T09:23:49.719Z,7.43
2018-04-19T09:26:18.242Z,7.17
2018-04-19T09:28:45.831Z,7.57
2018-04-19T09:31:13.374Z,7.20
2018-04-19T09:33:40.997Z,6.70
2018-04-19T09:36:08.646Z,7.80
2018-04-19T09:38:36.343Z,6.97
2018-04-19T09:41:03.933Z,7.00
2018-04-19T09:43:32.307Z,7.27
2018-04-19T09:45:59.906Z,6.23
2018-04-19T09:48:28.046Z,6.43
2018-04-19T09:50:55.599Z,6.40
2018-04-19T09:53:23.830Z,6.13
2018-04-19T09:55:51.489Z,7.07
2018-04-19T09:58:19.054Z,6.63
2018-04-19T10:00:46.706Z,6.23
2018-04-19T10:03:18.987Z,5.87
2018-04-19T10:05:47.435Z,7.17
2018-04-19T10:08:15.047Z,5.20
2018-04-19T10:10:42.625Z,7.10
2018-04-19T10:13:11.222Z,5.13
2018-04-19T10:15:38.866Z,7.30
2018-04-19T10:18:07.202Z,5.60
2018-04-19T10:20:35.323Z,5.73
2018-04-19T10:23:03.502Z,5.33
2018-04-19T10:25:31.810Z,5.70
2018-04-19T10:27:59.337Z,5.70
2018-04-19T10:30:26.901Z,4.77
2018-04-19T10:32:54.468Z,5.10
2018-04-19T10:35:22.156Z,5.17
2018-04-19T10:37:49.830Z,5.47
2018-04-19T10:40:17.535Z,4.73
2018-04-19T10:42:45.106Z,5.17
2018-04-19T10:45:13.659Z,5.23
2018-04-19T10:47:41.931Z,5.23
2018-04-19T10:50:09.471Z,4.17
2018-04-19T10:52:37.463Z,4.80
2018-04-19T10:55:05.558Z,4.67
2018-04-19T10:57:33.175Z,4.83
2018-04-19T11:00:00.702Z,4.70
2018-04-19T11:02:28.287Z,4.37
2018-04-19T11:04:55.819Z,4.60
2018-04-19T11:07:23.405Z,3.27
2018-04-19T11:09:51.098Z,4.40
2018-04-19T11:12:18.631Z,3.53
2018-04-19T11:14:46.910Z,3.57
2018-04-19T11:17:15.541Z,3.43
2018-04-19T11:19:43.758Z,3.73
2018-04-19T11:22:11.839Z,4.07
2018-04-19T11:24:39.458Z,3.80
2018-04-19T11:27:07.615Z,4.43
2018-04-19T11:29:35.163Z,3.60
2018-04-19T11:32:02.757Z,5.13
2018-04-19T11:34:30.335Z,3.70
2018-04-19T11:36:57.875Z,4.13
2018-04-19T11:39:25.434Z,3.80
2018-04-19T11:41:53.166Z,3.50
2018-04-19T11:44:21.405Z,3.50
2018-04-19T11:46:48.970Z,3.27
2018-04-19T11:49:17.019Z,3.00
2018-04-19T11:51:46.018Z,2.90
2018-04-19T11:54:13.543Z,3.00
2018-04-19T11:56:41.287Z,3.03
2018-04-19T11:59:08.901Z,3.63
2018-04-19T12:01:37.267Z,3.80
2018-04-19T12:04:04.799Z,5.30
2018-04-19T12:06:32.339Z,2.63
2018-04-19T12:08:59.912Z,4.13
2018-04-19T12:11:27.463Z,3.20
2018-04-19T12:13:55.863Z,3.33
2018-04-19T12:16:23.443Z,2.80
2018-04-19T12:18:51.554Z,4.43
2018-04-19T12:21:19.860Z,3.10
2018-04-19T12:23:47.435Z,3.07
2018-04-19T12:26:15.600Z,3.20
2018-04-19T12:28:43.146Z,3.10
2018-04-19T12:31:11.437Z,2.87
2018-04-19T12:33:38.976Z,2.23
2018-04-19T12:36:06.507Z,3.47
2018-04-19T12:38:34.083Z,2.73
2018-04-19T12:41:02.303Z,3.00
2018-04-19T12:43:30.571Z,2.60
2018-04-19T12:45:58.103Z,3.03
2018-04-19T12:48:26.239Z,2.50
2018-04-19T12:50:53.934Z,4.30
2018-04-19T12:53:22.548Z,2.60
2018-04-19T12:55:50.092Z,2.60
2018-04-19T12:58:17.716Z,2.47
2018-04-19T13:00:45.279Z,1.63
2018-04-19T13:03:12.833Z,2.10
2018-04-19T13:05:40.960Z,2.13
2018-04-19T13:08:08.569Z,2.50
2018-04-19T13:10:36.699Z,2.50
2018-04-19T13:13:04.836Z,2.17
2018-04-19T13:15:32.877Z,2.53
2018-04-19T13:18:01.066Z,2.17
2018-04-19T13:20:29.647Z,2.47
2018-04-19T13:22:57.186Z,3.07
2018-04-19T13:25:25.302Z,2.03
2018-04-19T13:27:52.933Z,2.37
2018-04-19T13:30:20.550Z,2.90
2018-04-19T13:32:48.149Z,4.47
2018-04-19T13:35:15.699Z,2.40
2018-04-19T13:37:43.257Z,4.80
2018-04-19T13:40:10.949Z,2.10
2018-04-19T13:42:38.500Z,2.77
2018-04-19T13:45:07.525Z,3.13
2018-04-19T13:47:35.860Z,2.97
2018-04-19T13:50:03.419Z,2.10
2018-04-19T13:52:31.680Z,3.43
2018-04-19T13:54:59.219Z,2.50
2018-04-19T13:57:26.771Z,2.57
2018-04-19T13:59:54.359Z,2.43
2018-04-19T14:02:21.889Z,2.20
2018-04-19T14:04:49.531Z,2.30
2018-04-19T14:07:17.118Z,2.47
2018-04-19T14:09:44.671Z,2.17
2018-04-19T14:12:12.700Z,2.40
2018-04-19T14:14:41.278Z,2.43
2018-04-19T14:17:08.808Z,2.63
2018-04-19T14:19:37.108Z,2.37
2018-04-19T14:22:04.644Z,2.87
2018-04-19T14:24:33.166Z,2.30
2018-04-19T14:27:01.223Z,2.50
2018-04-19T14:29:28.757Z,1.87
2018-04-19T14:31:56.307Z,2.60
2018-04-19T14:34:23.899Z,2.33
2018-04-19T14:36:51.511Z,2.27
2018-04-19T14:39:19.043Z,2.03
2018-04-19T14:41:46.682Z,1.73
2018-04-19T14:44:14.969Z,2.70
2018-04-19T14:46:42.534Z,1.90
2018-04-19T14:49:11.162Z,2.73
2018-04-19T14:51:39.214Z,2.70
2018-04-19T14:54:06.760Z,4.83
2018-04-19T14:56:34.312Z,2.30
2018-04-19T14:59:01.906Z,3.67
2018-04-19T15:01:29.459Z,2.67
2018-04-19T15:03:57.026Z,2.93
2018-04-19T15:06:24.615Z,2.37
2018-04-19T15:08:52.640Z,3.13
2018-04-19T15:11:20.888Z,2.70
2018-04-19T15:13:49.037Z,2.27
2018-04-19T15:16:16.637Z,2.80
2018-04-19T15:18:44.879Z,3.27
2018-04-19T15:21:13.087Z,2.30
2018-04-19T15:23:41.028Z,3.17
2018-04-19T15:26:09.418Z,2.30
2018-04-19T15:28:36.962Z,2.93
2018-04-19T15:31:04.506Z,1.97
2018-04-19T15:33:32.235Z,3.03
2018-04-19T15:35:59.766Z,1.83
2018-04-19T15:38:27.312Z,2.27
2018-04-19T15:40:54.863Z,3.43
2018-04-19T15:43:23.304Z,2.53
2018-04-19T15:45:50.971Z,3.17
2018-04-19T15:48:19.435Z,3.93
2018-04-19T15:50:46.989Z,4.03
2018-04-19T15:53:14.960Z,3.20
2018-04-19T15:55:43.248Z,2.67
2018-04-19T15:58:10.907Z,3.13
2018-04-19T16:00:38.471Z,2.90
2018-04-19T16:03:06.002Z,2.80
2018-04-19T16:05:33.556Z,3.43
2018-04-19T16:08:01.928Z,4.00
2018-04-19T16:10:30.156Z,2.40
2018-04-19T16:12:58.656Z,2.90
2018-04-19T16:15:26.186Z,2.43
2018-04-19T16:17:54.498Z,3.80
2018-04-19T16:20:22.583Z,2.67
2018-04-19T16:22:50.145Z,2.80
2018-04-19T16:25:18.634Z,2.33
2018-04-19T16:27:46.215Z,2.83
2018-04-19T16:30:13.767Z,2.23
2018-04-19T16:32:41.431Z,2.87
2018-04-19T16:35:09.000Z,2.30
2018-04-19T16:37:36.527Z,2.77
2018-04-19T16:40:04.129Z,2.53
2018-04-19T16:42:31.741Z,4.03
2018-04-19T16:45:00.059Z,2.27
2018-04-19T16:47:28.144Z,2.43
2018-04-19T16:49:55.647Z,2.10
2018-04-19T16:52:23.896Z,2.77
2018-04-19T16:54:51.431Z,2.27
2018-04-19T16:57:18.962Z,2.30
2018-04-19T16:59:46.515Z,3.13
2018-04-19T17:02:14.055Z,2.50
2018-04-19T17:04:42.247Z,3.53
2018-04-19T17:07:10.255Z,2.30
2018-04-19T17:09:37.819Z,3.50
2018-04-19T17:12:05.927Z,2.07
2018-04-19T17:14:34.403Z,2.90
2018-04-19T17:17:01.956Z,2.40
2018-04-19T17:19:30.235Z,3.00
2018-04-19T17:21:58.689Z,2.20
2018-04-19T17:24:26.249Z,2.50
2018-04-19T17:26:54.579Z,2.37
2018-04-19T17:29:22.451Z,3.20
2018-04-19T17:31:50.649Z,2.57
2018-04-19T17:34:18.191Z,2.40
2018-04-19T17:36:45.818Z,3.67
2018-04-19T17:39:13.434Z,2.63
2018-04-19T17:41:40.982Z,2.90
2018-04-19T17:44:09.332Z,2.80
2018-04-19T17:46:37.434Z,2.87
2018-04-19T17:49:05.576Z,2.47
2018-04-19T17:51:33.563Z,2.80
2018-04-19T17:54:01.868Z,2.37
2018-04-19T17:56:29.846Z,3.10
2018-04-19T17:58:57.378Z,2.70
2018-04-19T18:01:24.923Z,2.97
2018-04-19T18:03:52.531Z,2.70
2018-04-19T18:06:20.092Z,2.90
2018-04-19T18:08:47.754Z,3.23
2018-04-19T18:11:15.940Z,2.40
2018-04-19T18:13:44.211Z,2.97
2018-04-19T18:16:11.799Z,2.37
2018-04-19T18:18:39.961Z,3.10
2018-04-19T18:21:08.046Z,2.80
2018-04-19T18:23:35.591Z,2.43
2018-04-19T18:26:03.680Z,4.23
2018-04-19T18:28:31.227Z,2.77
2018-04-19T18:30:58.774Z,6.37
2018-04-19T18:33:26.924Z,3.23
2018-04-19T18:35:54.478Z,3.73
2018-04-19T18:38:22.704Z,3.00
2018-04-19T18:40:50.344Z,3.50
2018-04-19T18:43:17.895Z,2.40
2018-04-19T18:45:46.039Z,3.83
2018-04-19T18:48:14.100Z,2.93
2018-04-19T18:50:41.743Z,2.80
2018-04-19T18:53:09.908Z,3.00
2018-04-19T18:55:37.448Z,3.43
2018-04-19T18:58:04.976Z,3.00
2018-04-19T19:00:32.534Z,2.80
2018-04-19T19:03:00.081Z,3.33
2018-04-19T19:05:27.639Z,2.87
2018-04-19T19:07:55.203Z,3.60
2018-04-19T19:10:23.308Z,2.47
2018-04-19T19:12:51.766Z,3.47
2018-04-19T19:18:49.973Z,2.30
2018-04-19T19:21:17.930Z,2.53
2018-04-19T19:23:45.489Z,3.17
2018-04-19T19:26:13.718Z,2.37
2018-04-19T19:28:41.448Z,2.70
2018-04-19T19:31:09.024Z,3.47
2018-04-19T19:33:37.112Z,3.47
2018-04-19T19:36:04.825Z,2.77
2018-04-19T19:38:32.392Z,3.90
2018-04-19T19:41:00.559Z,3.00
2018-04-19T19:43:29.002Z,3.53
2018-04-19T19:45:57.131Z,2.60
2018-04-19T19:48:25.573Z,5.60
2018-04-19T19:50:53.115Z,3.63
2018-04-19T19:53:21.470Z,4.53
2018-04-19T19:55:49.004Z,3.57
2018-04-19T19:58:16.574Z,3.73
2018-04-19T20:00:44.139Z,3.30
2018-04-19T20:03:11.714Z,3.30
2018-04-19T20:05:39.260Z,3.13
2018-04-19T20:08:06.975Z,2.80
2018-04-19T20:10:34.959Z,3.57
2018-04-19T20:13:02.913Z,2.87
2018-04-19T20:15:30.447Z,3.63
2018-04-19T20:17:59.021Z,3.40
2018-04-19T20:20:27.603Z,4.37
2018-04-19T20:22:55.137Z,3.30
2018-04-19T20:25:23.047Z,3.93
2018-04-19T20:27:50.592Z,2.90
2018-04-19T20:30:18.138Z,4.23
2018-04-19T20:32:45.716Z,3.10
2018-04-19T20:35:14.143Z,3.73
2018-04-19T20:37:41.705Z,3.87
2018-04-19T20:40:10.109Z,3.70
2018-04-19T20:42:37.668Z,3.40
2018-04-19T20:45:05.857Z,3.67
2018-04-19T20:47:33.887Z,3.57
2018-04-19T20:50:01.412Z,6.40
2018-04-19T20:52:29.475Z,3.33
2018-04-19T20:54:57.126Z,4.67
2018-04-19T20:57:24.658Z,3.07
2018-04-19T20:59:52.343Z,4.17
2018-04-19T21:02:19.882Z,3.73
2018-04-19T21:04:47.461Z,3.60
2018-04-19T21:07:15.035Z,3.27
2018-04-19T21:09:43.110Z,3.17
2018-04-19T21:12:12.195Z,3.80
2018-04-19T21:14:40.534Z,4.20
2018-04-19T21:17:08.105Z,3.80
2018-04-19T21:19:36.214Z,3.40
2018-04-19T21:22:03.758Z,5.70
2018-04-19T21:24:32.047Z,3.37
2018-04-19T21:27:00.523Z,4.33
2018-04-19T21:29:28.060Z,3.50
2018-04-19T21:31:56.384Z,3.87
2018-04-19T21:34:23.980Z,3.70
2018-04-19T21:36:51.734Z,5.23
2018-04-19T21:39:19.972Z,3.40
2018-04-19T21:41:47.520Z,3.23
2018-04-19T21:44:16.143Z,3.47
2018-04-19T21:46:44.324Z,3.50
2018-04-19T21:49:13.342Z,3.93
2018-04-19T21:51:41.414Z,3.40
2018-04-19T21:54:08.977Z,3.63
2018-04-19T21:56:36.506Z,3.80
2018-04-19T21:59:04.132Z,3.33
2018-04-19T22:01:31.669Z,5.47
2018-04-19T22:03:59.235Z,3.60
2018-04-19T22:06:26.808Z,4.20
2018-04-19T22:08:54.449Z,3.70
2018-04-19T22:11:23.655Z,5.47
2018-04-19T22:13:52.162Z,3.40
2018-04-19T22:16:19.826Z,5.20
2018-04-19T22:18:47.931Z,3.70
2018-04-19T22:21:16.327Z,4.33
2018-04-19T22:23:43.892Z,4.00
2018-04-19T22:26:12.110Z,4.30
2018-04-19T22:28:39.668Z,4.70
2018-04-19T22:31:07.388Z,4.30
2018-04-19T22:33:34.970Z,5.50
2018-04-19T22:36:03.410Z,4.33
2018-04-19T22:38:30.983Z,6.87
2018-04-19T22:40:58.512Z,5.17
2018-04-19T22:43:26.861Z,5.07
2018-04-19T22:45:54.434Z,4.50
2018-04-19T22:48:23.611Z,5.33
2018-04-19T22:50:51.339Z,4.73
2018-04-19T22:53:19.354Z,5.17
2018-04-19T22:55:46.912Z,3.70
2018-04-19T22:58:14.471Z,3.80
2018-04-19T23:00:42.725Z,3.87
2018-04-19T23:03:10.365Z,4.17
2018-04-19T23:05:38.056Z,3.80
2018-04-19T23:08:06.513Z,4.17
2018-04-19T23:10:34.407Z,4.17
2018-04-19T23:13:02.477Z,3.97
2018-04-19T23:15:30.055Z,4.27
2018-04-19T23:17:58.228Z,5.23
2018-04-19T23:20:26.387Z,4.37
2018-04-19T23:22:53.922Z,6.10
2018-04-19T23:25:22.207Z,4.73
2018-04-19T23:27:49.750Z,5.70
2018-04-19T23:30:17.305Z,4.00
2018-04-19T23:32:45.863Z,5.90
2018-04-19T23:35:13.408Z,4.73
2018-04-19T23:37:41.138Z,5.50
2018-04-19T23:40:08.771Z,4.40
2018-04-19T23:42:36.327Z,4.63
2018-04-19T23:45:04.452Z,5.00
2018-04-19T23:47:32.845Z,4.83
2018-04-19T23:50:00.383Z,5.50
2018-04-19T23:52:28.691Z,4.97
2018-04-19T23:54:56.224Z,6.47
2018-04-19T23:57:23.770Z,4.93
2018-04-19T23:59:52.155Z,6.83
